Time;durP1;ratioP1;P1;durP2;ratioP2;P2;SDS_P1;SDS_P2;PMS_P1;PMS_P2;Temp;Humidity;BMP_temperature;BMP_pressure;BME280_temperature;BME280_humidity;BME280_pressure;Samples;Min_cycle;Max_cycle;Signal;HPM_P1;HPM_P2
2023/07/31 00:00:31;;;;;;;3.08;1.33;;;19.20;99.90;;;;;;7388922;19;20143;-82
2023/07/31 00:02:57;;;;;;;2.28;1.08;;;19.30;99.90;;;;;;7385219;19;20182;-79
2023/07/31 00:05:23;;;;;;;1.45;0.90;;;19.30;99.90;;;;;;7386342;19;20172;-82
2023/07/31 00:07:48;;;;;;;2.47;1.10;;;19.10;99.90;;;;;;7391975;19;20743;-82
2023/07/31 00:10:14;;;;;;;2.85;1.33;;;19.00;99.90;;;;;;7391902;19;20146;-80
2023/07/31 00:12:44;;;;;;;2.25;1.10;;;19.00;99.90;;;;;;7392091;19;20179;-83
2023/07/31 00:15:10;;;;;;;2.58;1.00;;;19.10;99.90;;;;;;7394504;19;20138;-81
2023/07/31 00:17:36;;;;;;;2.17;1.17;;;19.20;99.90;;;;;;7393888;19;20134;-82
2023/07/31 00:20:03;;;;;;;2.35;1.08;;;19.30;99.90;;;;;;7393781;19;20154;-81
2023/07/31 00:22:28;;;;;;;3.35;1.10;;;19.20;99.90;;;;;;7394364;19;20505;-80
2023/07/31 00:24:54;;;;;;;1.20;0.90;;;19.00;99.90;;;;;;7395876;19;20217;-82
2023/07/31 00:27:20;;;;;;;2.55;0.80;;;19.10;99.90;;;;;;7393660;19;20130;-82
2023/07/31 00:29:45;;;;;;;4.93;1.30;;;19.10;99.90;;;;;;7394084;19;20151;-82
2023/07/31 00:32:11;;;;;;;1.48;1.05;;;19.00;99.90;;;;;;7396027;19;20149;-81
2023/07/31 00:34:37;;;;;;;3.45;1.40;;;19.00;99.90;;;;;;7393152;19;20150;-77
2023/07/31 00:37:03;;;;;;;3.33;1.10;;;18.70;99.90;;;;;;7396767;19;20658;-82
2023/07/31 00:39:30;;;;;;;3.00;1.13;;;18.70;99.90;;;;;;7390540;19;20157;-80
2023/07/31 00:41:56;;;;;;;4.07;1.25;;;18.50;99.90;;;;;;7393805;19;20171;-80
2023/07/31 00:44:22;;;;;;;1.27;0.90;;;18.50;99.90;;;;;;7394676;19;20146;-82
2023/07/31 00:46:48;;;;;;;2.03;1.17;;;18.50;99.90;;;;;;7396753;19;20247;-82
2023/07/31 00:49:15;;;;;;;3.53;1.13;;;18.60;99.90;;;;;;7391838;19;20590;-82
2023/07/31 00:51:41;;;;;;;2.40;1.10;;;18.80;99.90;;;;;;7390689;19;20159;-81
2023/07/31 00:54:07;;;;;;;3.13;1.15;;;18.90;99.90;;;;;;7392369;19;20519;-80
2023/07/31 00:56:33;;;;;;;1.98;1.23;;;19.00;99.90;;;;;;7392908;19;20201;-80
2023/07/31 00:58:59;;;;;;;2.15;1.02;;;19.00;99.90;;;;;;7392056;19;20151;-80
2023/07/31 01:01:25;;;;;;;2.83;1.05;;;19.00;99.90;;;;;;7393228;19;20141;-79
2023/07/31 01:03:53;;;;;;;2.72;0.90;;;19.00;99.90;;;;;;7391486;19;20189;-82
2023/07/31 01:06:22;;;;;;;3.08;1.23;;;19.10;99.90;;;;;;7392106;19;20154;-79
2023/07/31 01:09:29;;;;;;;3.78;1.45;;;19.00;99.90;;;;;;7391084;19;20142;-81
2023/07/31 01:12:02;;;;;;;2.85;1.17;;;19.00;99.90;;;;;;7392015;19;20292;-81
2023/07/31 01:14:28;;;;;;;4.10;1.10;;;19.10;99.90;;;;;;7393579;19;20134;-81
2023/07/31 01:16:54;;;;;;;3.60;1.05;;;18.80;99.90;;;;;;7394099;19;20230;-82
2023/07/31 01:19:26;;;;;;;2.53;1.08;;;18.90;99.90;;;;;;7389111;19;20131;-82
2023/07/31 01:22:11;;;;;;;4.18;1.10;;;19.00;99.90;;;;;;7392325;19;20483;-81
2023/07/31 01:25:17;;;;;;;3.55;1.33;;;19.00;99.90;;;;;;7385844;19;20150;-82
2023/07/31 01:27:59;;;;;;;2.85;1.00;;;18.90;99.90;;;;;;7394189;19;20142;-80
2023/07/31 01:30:33;;;;;;;2.20;1.10;;;19.00;99.90;;;;;;7392038;19;20130;-81
2023/07/31 01:33:01;;;;;;;1.90;1.20;;;18.90;99.90;;;;;;7389860;19;20148;-77
2023/07/31 01:35:27;;;;;;;1.40;0.90;;;18.90;99.90;;;;;;7390676;19;20142;-80
2023/07/31 01:37:54;;;;;;;1.52;0.90;;;18.90;99.90;;;;;;7391817;19;20483;-79
2023/07/31 01:40:19;;;;;;;1.33;0.80;;;18.90;99.90;;;;;;7394849;19;20150;-81
2023/07/31 01:42:45;;;;;;;2.58;1.10;;;18.80;99.90;;;;;;7399858;19;20141;-79
2023/07/31 01:45:11;;;;;;;1.25;1.02;;;18.80;99.90;;;;;;7389476;19;20167;-83
2023/07/31 01:47:37;;;;;;;3.33;1.15;;;18.90;99.90;;;;;;7393677;19;20130;-79
2023/07/31 01:50:03;;;;;;;3.05;1.35;;;18.90;99.90;;;;;;7388374;19;20131;-82
2023/07/31 01:52:30;;;;;;;1.58;1.08;;;18.90;99.90;;;;;;7388958;19;20163;-80
2023/07/31 01:54:55;;;;;;;2.22;1.00;;;18.90;99.90;;;;;;7391582;19;20134;-79
2023/07/31 01:57:21;;;;;;;1.98;1.02;;;18.90;99.90;;;;;;7392347;19;20142;-83
2023/07/31 01:59:47;;;;;;;2.15;1.15;;;18.80;99.90;;;;;;7392228;19;20988;-82
2023/07/31 02:02:13;;;;;;;1.40;1.00;;;18.90;99.90;;;;;;7401371;19;20162;-80
2023/07/31 02:04:40;;;;;;;2.97;1.10;;;18.80;99.90;;;;;;7389681;19;20147;-79
2023/07/31 02:07:06;;;;;;;1.88;1.10;;;18.80;99.90;;;;;;7388860;19;20130;-78
2023/07/31 02:09:32;;;;;;;1.63;1.08;;;18.80;99.90;;;;;;7390886;19;20139;-81
2023/07/31 02:11:57;;;;;;;1.55;0.90;;;18.70;99.90;;;;;;7389814;19;20172;-79
2023/07/31 02:14:24;;;;;;;2.42;1.10;;;18.90;99.90;;;;;;7393208;19;20146;-77
2023/07/31 02:16:49;;;;;;;2.22;1.00;;;18.80;99.90;;;;;;7391324;19;20142;-82
2023/07/31 02:19:15;;;;;;;3.10;1.10;;;18.80;99.90;;;;;;7389067;19;20134;-82
2023/07/31 02:21:41;;;;;;;3.00;1.40;;;18.80;99.90;;;;;;7389933;19;20202;-82
2023/07/31 02:24:06;;;;;;;2.05;1.10;;;18.70;99.90;;;;;;7383942;19;20146;-83
2023/07/31 02:26:32;;;;;;;2.97;1.27;;;18.80;99.90;;;;;;7389184;19;20180;-83
2023/07/31 02:28:58;;;;;;;2.13;1.27;;;18.70;99.90;;;;;;7388543;19;20142;-79
2023/07/31 02:31:23;;;;;;;3.53;1.05;;;18.80;99.90;;;;;;7392907;19;20165;-82
2023/07/31 02:33:49;;;;;;;1.83;1.00;;;18.80;99.90;;;;;;7392169;19;20138;-82
2023/07/31 02:36:15;;;;;;;1.98;1.30;;;18.80;99.90;;;;;;7391942;19;20139;-83
2023/07/31 02:38:41;;;;;;;1.98;0.90;;;18.80;99.90;;;;;;7389622;19;20154;-83
2023/07/31 02:41:06;;;;;;;2.03;1.10;;;18.70;99.90;;;;;;7391011;19;20139;-83
2023/07/31 02:43:32;;;;;;;3.88;1.00;;;18.80;99.90;;;;;;7392183;19;20169;-82
2023/07/31 02:45:59;;;;;;;1.75;1.20;;;18.90;99.90;;;;;;7390200;19;20528;-80
2023/07/31 02:48:27;;;;;;;2.75;1.20;;;18.80;99.90;;;;;;7390282;19;20167;-82
2023/07/31 02:50:53;;;;;;;2.17;1.05;;;18.80;99.90;;;;;;7388944;19;20128;-81
2023/07/31 02:53:19;;;;;;;8.35;1.60;;;18.70;99.90;;;;;;7386903;19;20130;-82
2023/07/31 02:55:44;;;;;;;3.40;1.20;;;18.60;99.90;;;;;;7388967;19;20130;-82
2023/07/31 02:58:10;;;;;;;2.22;1.08;;;18.60;99.90;;;;;;7391145;19;20130;-80
2023/07/31 03:00:36;;;;;;;1.77;1.35;;;18.60;99.90;;;;;;7387425;19;20595;-81
2023/07/31 03:03:01;;;;;;;3.25;1.20;;;18.60;99.90;;;;;;7392156;19;20191;-83
2023/07/31 03:05:27;;;;;;;4.07;1.48;;;18.60;99.90;;;;;;7391806;19;20146;-83
2023/07/31 03:07:53;;;;;;;2.15;1.08;;;18.50;99.90;;;;;;7391101;19;20143;-80
2023/07/31 03:10:18;;;;;;;1.77;1.25;;;18.60;99.90;;;;;;7399832;19;20130;-82
2023/07/31 03:12:47;;;;;;;4.05;1.42;;;18.60;99.90;;;;;;7390501;19;20164;-80
2023/07/31 03:15:13;;;;;;;4.32;1.13;;;18.70;99.90;;;;;;7393668;19;20134;-83
2023/07/31 03:17:39;;;;;;;2.00;1.20;;;18.70;99.90;;;;;;7389347;19;20613;-83
2023/07/31 03:20:05;;;;;;;3.70;1.20;;;18.70;99.90;;;;;;7388338;19;20257;-83
2023/07/31 03:22:31;;;;;;;1.60;1.10;;;18.70;99.90;;;;;;7389916;19;20523;-83
2023/07/31 03:24:56;;;;;;;1.90;1.20;;;18.70;99.90;;;;;;7390544;19;20163;-77
2023/07/31 03:27:22;;;;;;;4.93;1.10;;;18.60;99.90;;;;;;7391534;19;20161;-82
2023/07/31 03:29:49;;;;;;;1.67;0.90;;;18.50;99.90;;;;;;7387475;19;20134;-83
2023/07/31 03:32:15;;;;;;;2.10;1.10;;;18.40;99.90;;;;;;7388341;19;20139;-83
2023/07/31 03:34:41;;;;;;;2.50;1.25;;;18.50;99.90;;;;;;7388885;19;20260;-83
2023/07/31 03:37:09;;;;;;;3.78;1.27;;;18.40;99.90;;;;;;7388734;19;20974;-81
2023/07/31 03:39:35;;;;;;;2.90;1.30;;;18.50;99.90;;;;;;7388529;19;20150;-83
2023/07/31 03:42:01;;;;;;;3.05;1.35;;;18.30;99.90;;;;;;7387821;19;20134;-80
2023/07/31 03:44:26;;;;;;;2.85;1.10;;;18.30;99.90;;;;;;7389417;19;20147;-83
2023/07/31 03:46:52;;;;;;;2.22;1.33;;;18.40;99.90;;;;;;7389764;19;20165;-84
2023/07/31 03:49:18;;;;;;;1.58;1.30;;;18.50;99.90;;;;;;7389342;19;20142;-83
2023/07/31 03:51:44;;;;;;;1.63;1.30;;;18.50;99.90;;;;;;7387187;19;20143;-84
2023/07/31 03:54:10;;;;;;;2.60;1.33;;;18.50;99.90;;;;;;7387862;19;20145;-81
2023/07/31 03:56:36;;;;;;;1.85;1.35;;;18.30;99.90;;;;;;7388012;19;20163;-82
2023/07/31 03:59:01;;;;;;;6.57;1.30;;;18.20;99.90;;;;;;7386616;19;20126;-83
2023/07/31 04:01:27;;;;;;;3.17;1.40;;;18.50;99.90;;;;;;7387288;19;20229;-81
2023/07/31 04:03:53;;;;;;;1.63;1.10;;;18.40;99.90;;;;;;7385709;19;20244;-80
2023/07/31 04:06:18;;;;;;;2.33;1.40;;;18.50;99.90;;;;;;7388209;19;20672;-81
2023/07/31 04:08:45;;;;;;;2.17;1.55;;;18.60;99.90;;;;;;7385675;19;20146;-80
2023/07/31 04:11:12;;;;;;;1.67;1.10;;;18.50;99.90;;;;;;7389921;19;20141;-82
2023/07/31 04:13:38;;;;;;;2.58;1.40;;;18.60;99.90;;;;;;7388663;19;20181;-82
2023/07/31 04:16:04;;;;;;;4.47;1.50;;;18.50;99.90;;;;;;7389413;19;20629;-82
2023/07/31 04:18:30;;;;;;;3.20;1.35;;;18.60;99.90;;;;;;7385042;19;20159;-80
2023/07/31 04:20:58;;;;;;;4.13;2.15;;;18.60;99.90;;;;;;7387390;19;20134;-80
2023/07/31 04:23:24;;;;;;;3.50;1.60;;;18.70;99.90;;;;;;7387568;19;20134;-82
2023/07/31 04:25:50;;;;;;;4.38;1.73;;;18.70;99.90;;;;;;7387538;19;20178;-81
2023/07/31 04:28:16;;;;;;;3.60;1.60;;;18.70;99.90;;;;;;7384255;19;20151;-82
2023/07/31 04:30:42;;;;;;;5.72;1.20;;;18.80;99.90;;;;;;7387287;19;20162;-82
2023/07/31 04:33:08;;;;;;;2.38;1.60;;;18.80;99.90;;;;;;7384855;19;20131;-80
2023/07/31 04:35:33;;;;;;;5.57;1.90;;;18.80;99.90;;;;;;7387279;19;20582;-82
2023/07/31 04:37:59;;;;;;;3.00;1.55;;;18.90;99.90;;;;;;7385954;19;20135;-80
2023/07/31 04:40:25;;;;;;;3.45;1.83;;;18.90;99.90;;;;;;7385418;19;20138;-81
2023/07/31 04:42:51;;;;;;;2.85;1.60;;;18.90;99.90;;;;;;7384183;19;20135;-82
2023/07/31 04:45:17;;;;;;;3.88;2.05;;;18.90;99.90;;;;;;7387683;19;20162;-82
2023/07/31 04:47:42;;;;;;;5.65;1.70;;;18.90;99.90;;;;;;7384793;19;20583;-82
2023/07/31 04:50:08;;;;;;;6.78;1.95;;;19.00;99.90;;;;;;7385523;19;20168;-82
2023/07/31 04:52:34;;;;;;;4.07;1.55;;;18.90;99.90;;;;;;7385743;19;20701;-82
2023/07/31 04:55:00;;;;;;;4.57;2.38;;;18.90;99.90;;;;;;7395279;19;20139;-81
2023/07/31 04:57:25;;;;;;;5.30;2.20;;;19.00;99.90;;;;;;7393817;19;20145;-81
2023/07/31 04:59:51;;;;;;;5.57;1.90;;;19.00;99.90;;;;;;7391658;19;20147;-80
2023/07/31 05:02:17;;;;;;;4.55;1.52;;;19.10;99.90;;;;;;7391671;19;20135;-81
2023/07/31 05:04:42;;;;;;;4.03;1.20;;;19.00;99.90;;;;;;7391096;19;20456;-82
2023/07/31 05:07:08;;;;;;;4.03;1.30;;;19.10;99.90;;;;;;7393438;19;20155;-83
2023/07/31 05:09:34;;;;;;;3.45;1.35;;;19.10;99.90;;;;;;7392361;19;20141;-83
2023/07/31 05:12:00;;;;;;;3.72;1.60;;;19.10;99.90;;;;;;7390802;19;20218;-82
2023/07/31 05:14:26;;;;;;;2.33;1.48;;;19.20;99.90;;;;;;7394643;19;20131;-82
2023/07/31 05:16:52;;;;;;;3.17;1.33;;;19.00;99.90;;;;;;7393221;19;20138;-80
2023/07/31 05:19:18;;;;;;;3.75;1.05;;;19.20;99.90;;;;;;7390734;19;20138;-80
2023/07/31 05:21:44;;;;;;;3.30;1.45;;;19.20;99.90;;;;;;7392800;19;20155;-81
2023/07/31 05:24:10;;;;;;;2.35;1.02;;;19.20;99.90;;;;;;7390869;19;20137;-82
2023/07/31 05:26:37;;;;;;;4.57;1.75;;;19.30;99.90;;;;;;7392336;19;20150;-81
2023/07/31 05:29:03;;;;;;;2.90;1.20;;;19.30;99.90;;;;;;7392229;19;20260;-81
2023/07/31 05:31:29;;;;;;;4.70;1.40;;;19.30;99.90;;;;;;7391018;19;20154;-81
2023/07/31 05:33:55;;;;;;;2.95;1.25;;;19.40;99.90;;;;;;7390957;19;20152;-82
2023/07/31 05:36:20;;;;;;;4.57;1.80;;;19.40;99.90;;;;;;7390384;19;20141;-80
2023/07/31 05:38:46;;;;;;;5.93;2.33;;;19.30;99.90;;;;;;7390033;19;20882;-80
2023/07/31 05:41:12;;;;;;;7.60;2.13;;;19.50;99.90;;;;;;7388563;19;20127;-80
2023/07/31 05:43:38;;;;;;;5.30;2.00;;;19.50;99.90;;;;;;7390437;19;20130;-80
2023/07/31 05:46:04;;;;;;;4.30;2.03;;;19.50;99.90;;;;;;7389261;19;20237;-79
2023/07/31 05:48:30;;;;;;;4.53;2.08;;;19.50;99.90;;;;;;7388796;19;20511;-78
2023/07/31 05:50:56;;;;;;;3.13;1.80;;;19.60;99.90;;;;;;7389709;19;20518;-78
2023/07/31 05:53:21;;;;;;;4.30;1.90;;;19.70;99.90;;;;;;7388280;19;20134;-80
2023/07/31 05:55:47;;;;;;;5.05;2.10;;;19.80;99.90;;;;;;7388539;19;20131;-80
2023/07/31 05:58:13;;;;;;;4.22;1.90;;;19.90;99.90;;;;;;7386851;19;20570;-81
2023/07/31 06:00:39;;;;;;;4.20;1.95;;;19.90;99.90;;;;;;7386697;19;20145;-79
2023/07/31 06:03:04;;;;;;;5.85;1.38;;;19.90;99.90;;;;;;7389968;19;20153;-80
2023/07/31 06:05:30;;;;;;;2.35;1.42;;;19.90;99.90;;;;;;7392287;19;20626;-80
2023/07/31 06:07:56;;;;;;;4.13;1.58;;;20.00;99.90;;;;;;7389287;19;20509;-79
2023/07/31 06:10:22;;;;;;;5.55;1.70;;;20.10;99.90;;;;;;7385067;19;20131;-79
2023/07/31 06:12:48;;;;;;;5.40;1.40;;;20.00;99.90;;;;;;7386985;19;20182;-79
2023/07/31 06:15:14;;;;;;;3.10;1.52;;;20.00;99.90;;;;;;7387063;19;20127;-81
2023/07/31 06:17:40;;;;;;;2.33;1.17;;;20.10;99.90;;;;;;7390899;19;20147;-80
2023/07/31 06:20:07;;;;;;;2.78;1.48;;;20.20;99.90;;;;;;7382632;19;20138;-78
2023/07/31 06:22:32;;;;;;;3.13;1.30;;;20.20;99.90;;;;;;7387001;19;20477;-79
2023/07/31 06:24:58;;;;;;;2.38;1.65;;;20.30;99.90;;;;;;7388763;19;20151;-78
2023/07/31 06:27:24;;;;;;;3.60;2.08;;;20.30;99.90;;;;;;7388277;19;20516;-80
2023/07/31 06:29:50;;;;;;;5.47;2.22;;;20.30;99.90;;;;;;7382595;19;21070;-78
2023/07/31 06:32:16;;;;;;;3.15;1.50;;;20.80;99.90;;;;;;7383511;19;20138;-80
2023/07/31 06:34:45;;;;;;;2.05;1.23;;;21.60;99.90;;;;;;7382171;19;20177;-81
2023/07/31 06:37:10;;;;;;;2.17;1.60;;;22.60;99.90;;;;;;7389265;19;20784;-79
2023/07/31 06:39:37;;;;;;;3.10;2.10;;;23.70;99.90;;;;;;7387001;19;20126;-80
2023/07/31 06:42:03;;;;;;;2.83;1.33;;;24.60;99.90;;;;;;7388999;19;20135;-78
2023/07/31 06:44:29;;;;;;;2.92;1.15;;;23.90;99.90;;;;;;7388521;19;20146;-81
2023/07/31 06:46:55;;;;;;;2.63;1.90;;;24.30;99.90;;;;;;7388607;19;20146;-79
2023/07/31 06:49:20;;;;;;;3.50;1.52;;;25.80;99.90;;;;;;7387551;19;20131;-79
2023/07/31 06:51:46;;;;;;;3.60;1.40;;;26.10;99.90;;;;;;7386705;19;20126;-80
2023/07/31 06:54:12;;;;;;;3.70;1.52;;;26.70;99.90;;;;;;7387984;19;20163;-80
2023/07/31 06:56:38;;;;;;;2.33;1.45;;;26.20;99.90;;;;;;7388241;19;20135;-81
2023/07/31 06:59:03;;;;;;;3.97;1.58;;;26.30;99.90;;;;;;7386111;19;20164;-81
2023/07/31 07:01:29;;;;;;;5.25;1.40;;;26.90;99.90;;;;;;7389111;19;20139;-80
2023/07/31 07:03:55;;;;;;;2.28;1.30;;;26.80;99.90;;;;;;7387826;19;20151;-81
2023/07/31 07:06:22;;;;;;;3.72;1.40;;;25.90;99.90;;;;;;7389250;19;20146;-80
2023/07/31 07:08:48;;;;;;;5.32;1.27;;;25.60;99.90;;;;;;7387882;19;20138;-81
2023/07/31 07:11:14;;;;;;;2.42;1.35;;;23.90;99.90;;;;;;7387524;19;20146;-81
2023/07/31 07:13:40;;;;;;;4.43;1.33;;;23.40;99.90;;;;;;7388668;19;20165;-81
2023/07/31 07:16:06;;;;;;;2.97;1.27;;;23.70;99.90;;;;;;7382848;19;20210;-82
2023/07/31 07:18:32;;;;;;;5.53;1.80;;;24.10;99.90;;;;;;7388294;19;20131;-77
2023/07/31 07:20:58;;;;;;;3.90;1.80;;;25.00;99.90;;;;;;7388244;19;20141;-80
2023/07/31 07:23:24;;;;;;;2.70;1.48;;;25.20;99.90;;;;;;7386685;19;20149;-81
2023/07/31 07:25:51;;;;;;;2.45;1.30;;;24.90;99.90;;;;;;7387579;19;20629;-82
2023/07/31 07:28:16;;;;;;;4.15;1.77;;;24.60;99.90;;;;;;7386048;19;20165;-83
2023/07/31 07:30:42;;;;;;;5.03;1.55;;;24.90;99.90;;;;;;7386348;19;20142;-80
2023/07/31 07:33:08;;;;;;;2.08;1.27;;;24.70;99.90;;;;;;7386805;19;20138;-81
2023/07/31 07:35:35;;;;;;;2.83;1.80;;;24.60;99.90;;;;;;7388786;19;20161;-80
2023/07/31 07:38:01;;;;;;;3.70;1.73;;;24.30;99.90;;;;;;7385571;19;20145;-80
2023/07/31 07:40:27;;;;;;;4.15;2.90;;;23.80;99.90;;;;;;7388538;19;20586;-77
2023/07/31 07:42:53;;;;;;;3.63;1.55;;;23.60;99.90;;;;;;7386610;19;20139;-78
2023/07/31 07:45:18;;;;;;;4.55;2.03;;;23.60;99.90;;;;;;7387254;19;20265;-78
2023/07/31 07:47:44;;;;;;;5.40;2.00;;;23.60;99.90;;;;;;7386197;19;20155;-78
2023/07/31 07:50:10;;;;;;;6.97;1.92;;;23.50;99.90;;;;;;7386788;19;20210;-76
2023/07/31 07:52:36;;;;;;;2.50;1.20;;;23.80;99.90;;;;;;7385990;19;20575;-79
2023/07/31 07:55:04;;;;;;;2.78;2.03;;;24.10;99.90;;;;;;7385914;19;20134;-78
2023/07/31 07:57:29;;;;;;;7.63;5.13;;;24.60;99.90;;;;;;7384963;19;20133;-78
2023/07/31 07:59:55;;;;;;;3.42;2.55;;;24.80;99.90;;;;;;7386110;19;20138;-75
2023/07/31 08:02:22;;;;;;;3.45;1.75;;;25.40;99.90;;;;;;7388199;19;20135;-78
2023/07/31 08:04:48;;;;;;;3.28;1.50;;;25.70;99.90;;;;;;7385129;19;20147;-78
2023/07/31 08:07:14;;;;;;;2.60;1.40;;;25.60;99.90;;;;;;7387806;19;20127;-77
2023/07/31 08:09:40;;;;;;;3.67;1.52;;;26.10;99.90;;;;;;7386098;19;20154;-80
2023/07/31 08:12:06;;;;;;;3.97;1.85;;;25.90;99.90;;;;;;7384512;19;20178;-81
2023/07/31 08:14:32;;;;;;;3.75;1.75;;;26.00;99.90;;;;;;7386374;19;20156;-77
2023/07/31 08:16:58;;;;;;;5.13;2.10;;;26.10;99.90;;;;;;7387659;19;20221;-77
2023/07/31 08:19:24;;;;;;;2.95;1.92;;;26.10;99.90;;;;;;7383964;19;20146;-80
2023/07/31 08:21:50;;;;;;;2.28;1.35;;;26.40;99.90;;;;;;7385672;19;20141;-77
2023/07/31 08:24:15;;;;;;;4.22;1.70;;;26.90;99.10;;;;;;7384850;19;20696;-78
2023/07/31 08:27:00;;;;;;;3.05;1.55;;;27.40;97.80;;;;;;7383916;19;20138;-82
2023/07/31 08:29:26;;;;;;;3.13;1.75;;;27.00;98.10;;;;;;7394028;19;20141;-84
2023/07/31 08:31:57;;;;;;;3.67;1.50;;;26.90;98.30;;;;;;7392698;19;20194;-84
2023/07/31 08:34:26;;;;;;;1.98;1.38;;;26.90;98.20;;;;;;7394531;19;20172;-86
2023/07/31 08:37:44;;;;;;;3.00;1.95;;;27.00;97.70;;;;;;7394083;19;20206;-84
2023/07/31 08:40:39;;;;;;;4.47;2.13;;;26.50;97.90;;;;;;7390299;19;20150;-84
2023/07/31 08:43:05;;;;;;;3.00;1.83;;;25.90;99.70;;;;;;7390527;19;20587;-83
2023/07/31 08:45:32;;;;;;;2.90;2.22;;;25.30;99.80;;;;;;7392225;19;20142;-83
2023/07/31 08:48:01;;;;;;;3.92;1.70;;;25.40;99.90;;;;;;7392436;19;20157;-82
2023/07/31 08:50:27;;;;;;;6.32;2.35;;;25.80;99.90;;;;;;7386335;19;20146;-84
2023/07/31 08:52:53;;;;;;;6.07;2.25;;;26.00;99.90;;;;;;7389761;19;20161;-79
2023/07/31 08:55:25;;;;;;;4.05;2.00;;;25.90;99.90;;;;;;7391492;19;20131;-83
2023/07/31 08:57:55;;;;;;;5.20;2.15;;;25.90;99.70;;;;;;7395875;19;20142;-86
2023/07/31 09:00:24;;;;;;;2.85;1.80;;;25.80;99.90;;;;;;7402010;19;20142;-84
2023/07/31 09:02:59;;;;;;;8.40;4.13;;;25.70;99.90;;;;;;7396925;19;20176;-85
2023/07/31 09:05:27;;;;;;;4.05;2.17;;;25.70;99.90;;;;;;7400506;19;20140;-85
2023/07/31 09:07:55;;;;;;;2.85;2.47;;;25.50;99.90;;;;;;7394831;19;20139;-87
2023/07/31 09:10:21;;;;;;;6.15;2.88;;;25.50;99.90;;;;;;7393794;19;20146;-88
2023/07/31 09:12:48;;;;;;;5.30;2.15;;;25.60;99.90;;;;;;7393331;19;20157;-85
2023/07/31 09:15:14;;;;;;;3.20;1.80;;;25.80;99.90;;;;;;7392179;19;20560;-86
2023/07/31 09:17:40;;;;;;;6.47;1.73;;;25.80;99.90;;;;;;7393575;19;20138;-87
2023/07/31 09:20:17;;;;;;;2.35;1.63;;;25.80;99.90;;;;;;7394028;19;20162;-87
2023/07/31 09:22:44;;;;;;;5.55;1.75;;;25.80;99.90;;;;;;7390389;19;20142;-84
2023/07/31 09:25:18;;;;;;;2.83;1.70;;;25.60;99.70;;;;;;7391115;19;20127;-82
2023/07/31 09:27:47;;;;;;;5.32;3.50;;;25.50;99.90;;;;;;7390489;19;20149;-82
2023/07/31 09:30:13;;;;;;;5.20;2.72;;;25.40;99.90;;;;;;7390380;19;20154;-81
2023/07/31 09:32:40;;;;;;;6.80;2.65;;;25.30;99.90;;;;;;7387721;19;20138;-82
2023/07/31 09:35:32;;;;;;;6.63;4.10;;;25.10;99.90;;;;;;7392151;19;20453;-78
2023/07/31 09:38:00;;;;;;;5.88;3.95;;;24.80;99.90;;;;;;7392098;19;20257;-76
2023/07/31 09:40:27;;;;;;;6.05;3.72;;;24.60;99.90;;;;;;7390071;19;20149;-86
2023/07/31 09:43:04;;;;;;;8.55;4.25;;;24.40;99.90;;;;;;7395500;19;20628;-86
2023/07/31 09:45:33;;;;;;;5.80;3.75;;;24.30;99.90;;;;;;7396661;19;20152;-85
2023/07/31 09:47:59;;;;;;;4.65;3.10;;;24.10;99.90;;;;;;7391463;19;20154;-84
2023/07/31 09:50:25;;;;;;;3.25;1.92;;;24.10;99.90;;;;;;7393057;19;20616;-86
2023/07/31 09:52:52;;;;;;;4.30;2.47;;;24.20;99.90;;;;;;7388838;19;20150;-89
2023/07/31 09:55:19;;;;;;;4.30;2.55;;;24.40;99.90;;;;;;7390170;19;20133;-88
2023/07/31 09:57:49;;;;;;;4.78;2.70;;;24.70;99.90;;;;;;7390802;19;20146;-84
2023/07/31 10:00:18;;;;;;;6.22;3.03;;;25.00;99.90;;;;;;7389126;19;20182;-83
2023/07/31 10:02:47;;;;;;;5.10;3.17;;;25.10;99.90;;;;;;7391171;19;20211;-88
2023/07/31 10:05:15;;;;;;;4.15;3.38;;;25.10;99.90;;;;;;7389268;19;20138;-84
2023/07/31 10:07:50;;;;;;;5.13;3.45;;;25.00;99.90;;;;;;7390489;19;20225;-85
2023/07/31 10:10:16;;;;;;;6.43;2.05;;;24.90;99.90;;;;;;7391049;19;20154;-85
2023/07/31 10:12:45;;;;;;;4.43;2.05;;;25.00;99.90;;;;;;7388795;19;20484;-86
2023/07/31 10:15:11;;;;;;;5.03;1.90;;;25.10;99.90;;;;;;7387829;19;20228;-86
2023/07/31 10:17:38;;;;;;;3.03;2.35;;;25.10;99.90;;;;;;7394328;19;20179;-88
2023/07/31 10:20:06;;;;;;;3.40;1.88;;;25.20;99.90;;;;;;7388729;19;20157;-85
2023/07/31 10:22:33;;;;;;;2.90;1.65;;;25.20;99.90;;;;;;7392501;19;20127;-85
2023/07/31 10:25:00;;;;;;;3.53;2.10;;;25.20;99.90;;;;;;7390120;19;20129;-83
2023/07/31 10:27:26;;;;;;;6.78;3.97;;;25.10;99.90;;;;;;7393870;19;20130;-84
2023/07/31 10:29:54;;;;;;;5.07;3.15;;;25.00;99.90;;;;;;7398881;19;20135;-88
2023/07/31 10:32:21;;;;;;;3.03;2.33;;;24.90;99.90;;;;;;7385895;19;20139;-81
2023/07/31 10:34:49;;;;;;;3.63;1.83;;;24.70;99.90;;;;;;7388521;19;20126;-81
2023/07/31 10:37:44;;;;;;;4.03;2.22;;;24.90;99.90;;;;;;7385990;19;20146;-83
2023/07/31 10:40:24;;;;;;;15.98;11.20;;;25.10;99.90;;;;;;7384008;19;20150;-80
2023/07/31 10:42:55;;;;;;;4.38;2.72;;;25.00;99.90;;;;;;7388557;19;20138;-84
2023/07/31 10:45:42;;;;;;;5.15;2.25;;;24.80;99.90;;;;;;7392824;19;20147;-84
2023/07/31 10:48:15;;;;;;;4.32;2.42;;;24.80;99.90;;;;;;7390496;19;20257;-84
2023/07/31 10:50:49;;;;;;;6.55;2.20;;;24.50;99.90;;;;;;7388546;19;20142;-81
2023/07/31 10:53:32;;;;;;;2.75;2.00;;;24.30;99.90;;;;;;7390743;19;20123;-79
2023/07/31 10:56:06;;;;;;;3.95;2.03;;;24.30;99.90;;;;;;7388109;19;20134;-78
2023/07/31 10:58:33;;;;;;;3.65;2.15;;;24.40;99.90;;;;;;7390515;19;20606;-80
2023/07/31 11:01:00;;;;;;;5.63;2.03;;;24.50;99.90;;;;;;7383505;19;20134;-82
2023/07/31 11:03:41;;;;;;;5.68;2.80;;;24.50;99.90;;;;;;7384788;19;20474;-80
2023/07/31 11:06:07;;;;;;;4.40;1.38;;;24.90;99.90;;;;;;7385216;19;20221;-81
2023/07/31 11:08:44;;;;;;;4.63;2.78;;;24.90;99.90;;;;;;7384146;19;20142;-79
2023/07/31 11:11:12;;;;;;;3.40;2.35;;;25.00;99.90;;;;;;7383336;19;20395;-80
2023/07/31 11:13:45;;;;;;;4.53;2.20;;;25.00;99.90;;;;;;7384805;19;20258;-79
2023/07/31 11:16:12;;;;;;;7.60;3.75;;;24.90;99.90;;;;;;7388079;19;20498;-82
2023/07/31 11:18:40;;;;;;;6.30;3.42;;;24.80;99.90;;;;;;7385615;19;20142;-82
2023/07/31 11:21:06;;;;;;;5.50;3.50;;;24.70;99.90;;;;;;7385961;19;20145;-81
2023/07/31 11:23:32;;;;;;;4.10;2.10;;;24.60;99.90;;;;;;7388789;19;20131;-79
2023/07/31 11:26:02;;;;;;;7.63;4.22;;;24.60;99.90;;;;;;7386594;19;20146;-81
2023/07/31 11:28:33;;;;;;;4.13;2.10;;;24.50;99.90;;;;;;7383473;19;20202;-80
2023/07/31 11:31:00;;;;;;;4.75;2.47;;;24.50;99.90;;;;;;7386861;19;20210;-80
2023/07/31 11:33:29;;;;;;;3.92;2.20;;;24.40;99.90;;;;;;7387395;19;20125;-82
2023/07/31 11:35:55;;;;;;;3.63;2.03;;;24.30;99.90;;;;;;7387509;19;20142;-81
2023/07/31 11:38:29;;;;;;;4.75;1.88;;;24.20;99.90;;;;;;7386249;19;20150;-79
2023/07/31 11:41:00;;;;;;;6.68;2.25;;;24.10;99.90;;;;;;7387059;19;20137;-84
2023/07/31 11:43:29;;;;;;;3.25;1.92;;;24.00;99.90;;;;;;7387190;19;20187;-84
2023/07/31 11:45:56;;;;;;;2.47;1.70;;;23.80;99.90;;;;;;7386363;19;20226;-85
2023/07/31 11:48:36;;;;;;;3.10;1.63;;;23.90;99.90;;;;;;7385169;19;20166;-80
2023/07/31 11:51:04;;;;;;;2.47;1.70;;;23.90;99.90;;;;;;7389725;19;20206;-81
2023/07/31 11:53:53;;;;;;;3.38;1.95;;;24.00;99.90;;;;;;7386108;19;20917;-82
2023/07/31 11:56:20;;;;;;;5.22;2.13;;;24.10;99.90;;;;;;7392229;19;20154;-83
2023/07/31 11:58:49;;;;;;;3.95;1.80;;;24.20;99.90;;;;;;7398128;19;20614;-81
2023/07/31 12:01:20;;;;;;;3.58;2.40;;;24.30;99.90;;;;;;7390822;19;20153;-83
2023/07/31 12:03:47;;;;;;;3.53;1.70;;;24.50;99.90;;;;;;7392158;19;21305;-83
2023/07/31 12:06:13;;;;;;;4.50;1.90;;;24.50;99.90;;;;;;7395113;19;20154;-78
2023/07/31 12:08:39;;;;;;;5.40;1.98;;;24.40;99.90;;;;;;7394573;19;20610;-81
2023/07/31 12:11:06;;;;;;;4.93;1.88;;;24.60;99.90;;;;;;7395836;19;20130;-78
2023/07/31 12:13:33;;;;;;;4.13;2.35;;;24.50;99.90;;;;;;7392029;19;20142;-79
2023/07/31 12:16:01;;;;;;;4.60;2.30;;;24.60;99.90;;;;;;7394063;19;20162;-79
2023/07/31 12:18:29;;;;;;;3.78;2.25;;;24.50;99.90;;;;;;7394929;19;20481;-79
2023/07/31 12:20:59;;;;;;;3.38;2.17;;;24.50;99.90;;;;;;7396132;19;20135;-82
2023/07/31 12:23:30;;;;;;;3.85;1.42;;;24.30;99.90;;;;;;7394470;19;20581;-79
2023/07/31 12:26:12;;;;;;;4.35;2.00;;;24.30;99.90;;;;;;7397012;19;20615;-80
2023/07/31 12:28:44;;;;;;;3.58;1.90;;;24.20;99.90;;;;;;7393594;19;20205;-79
2023/07/31 12:31:18;;;;;;;4.75;1.98;;;24.20;99.90;;;;;;7392953;19;20228;-80
2023/07/31 12:33:45;;;;;;;4.10;1.85;;;24.20;99.90;;;;;;7396932;19;20167;-82
2023/07/31 12:36:22;;;;;;;3.83;1.80;;;24.10;99.90;;;;;;7395052;19;20210;-81
2023/07/31 12:38:50;;;;;;;4.18;1.83;;;24.10;99.90;;;;;;7394625;19;20138;-81
2023/07/31 12:41:16;;;;;;;2.78;1.75;;;24.00;99.90;;;;;;7394904;19;20158;-80
2023/07/31 12:43:43;;;;;;;4.90;1.98;;;24.00;99.90;;;;;;7395142;19;20138;-79
2023/07/31 12:46:09;;;;;;;4.07;1.77;;;24.10;99.90;;;;;;7395479;19;20145;-80
2023/07/31 12:48:37;;;;;;;3.13;1.80;;;23.90;99.90;;;;;;7404389;19;20146;-80
2023/07/31 12:51:03;;;;;;;3.92;1.95;;;23.80;99.90;;;;;;7398594;19;20145;-79